KLWS/LWS METAR and TAF weather

Enter ICAO airport designator
Station Type Date Time Source
KLWS METAR 2018/12/15 03:56 UTC NOAA

KLWS 150356Z 28006KT 10SM OVC110 04/M03 A2977 RMK AO2 PRESRR SLP091 T00441033


Station Type Date Time Source
KLWS Decoded METAR 2018/12/15 03:56 UTC NOAA

LEWISTON NEZ PERCE CO AIRPORT , ID, United States (KLWS) 46-22N 117-01W 438M
Dec 14, 2018 - 10:56 PM EST / 2018.12.15 0356 UTC
Wind: from the W (280 degrees) at 7 MPH (6 KT):0
Visibility: 10 mile(s):0
Sky conditions: overcast
Temperature: 39.9 F (4.4 C)
Dew Point: 26.1 F (-3.3 C)
Relative Humidity: 57%
Pressure (altimeter): 29.77 in. Hg (1008 hPa)
Pressure tendency: rising rapidly
ob: KLWS 150356Z 28006KT 10SM OVC110 04/M03 A2977 RMK AO2 PRESRR SLP091 T00441033
cycle: 4

Station Type Date Time Source
KLWS TAF 2018/12/14 22:39 UTC NOAA

TAF
AMD KLWS 142137Z 1422/1518 08013G19KT P6SM SCT130 OVC200
FM150300 17011KT P6SM VCSH BKN050 OVC100 WS020/21040KT
FM150700 21012KT P6SM SCT030 BKN050
FM151500 18005KT P6SM BKN050


Example: see airport list